Time;durP1;ratioP1;P1;durP2;ratioP2;P2;SDS_P1;SDS_P2;PMS_P1;PMS_P2;Temp;Humidity;BMP_temperature;BMP_pressure;BME280_temperature;BME280_humidity;BME280_pressure;Samples;Min_cycle;Max_cycle;Signal;HPM_P1;HPM_P2
2023/01/17 00:00:14;;;;;;;1.42;1.05;;;18.30;46.30;;;;;;5840248;24;20178;-85
2023/01/17 00:02:59;;;;;;;3.63;1.27;;;18.30;46.40;;;;;;5866961;24;20158;-86
2023/01/17 00:11:05;;;;;;;1.55;1.02;;;18.30;46.40;;;;;;5918743;24;20153;-85
2023/01/17 00:14:04;;;;;;;3.72;1.10;;;18.30;46.40;;;;;;5892900;24;20300;-86
2023/01/17 00:16:32;;;;;;;2.83;1.10;;;18.30;46.40;;;;;;5866548;24;20216;-86
2023/01/17 01:34:37;;;;;;;2.97;1.08;;;18.00;46.90;;;;;;5959521;24;20156;-86
2023/01/17 01:37:16;;;;;;;1.98;1.13;;;18.00;47.10;;;;;;5959774;24;20160;-86
2023/01/17 01:39:54;;;;;;;2.05;1.20;;;18.00;47.10;;;;;;5967790;23;20155;-86
2023/01/17 01:42:40;;;;;;;2.63;1.05;;;18.00;47.10;;;;;;6101307;23;20155;-86
2023/01/17 01:45:25;;;;;;;2.38;1.20;;;18.00;47.10;;;;;;6100881;23;20168;-85
2023/01/17 01:47:59;;;;;;;3.63;1.30;;;17.90;47.10;;;;;;6012922;23;20155;-86
2023/01/17 01:51:18;;;;;;;1.40;1.10;;;18.00;47.20;;;;;;6118722;23;20184;-87
2023/01/17 01:53:45;;;;;;;3.20;1.30;;;18.00;47.20;;;;;;6086460;23;20153;-86
2023/01/17 01:56:14;;;;;;;2.28;1.33;;;18.00;47.20;;;;;;5991850;23;20623;-86
2023/01/17 01:58:51;;;;;;;2.17;0.90;;;18.00;47.30;;;;;;6036789;23;20184;-86
2023/01/17 02:01:22;;;;;;;1.83;1.10;;;17.90;47.30;;;;;;5993230;23;20164;-88
2023/01/17 02:03:57;;;;;;;1.30;1.10;;;17.90;47.40;;;;;;5990879;23;20174;-86
2023/01/17 02:06:44;;;;;;;2.28;1.15;;;18.00;47.50;;;;;;5968017;23;20197;-86
2023/01/17 02:09:16;;;;;;;1.75;1.20;;;17.90;47.30;;;;;;6016004;23;20158;-86
2023/01/17 02:11:48;;;;;;;1.55;1.10;;;17.90;47.30;;;;;;5982259;24;20238;-86
2023/01/17 02:14:24;;;;;;;1.27;1.00;;;17.90;47.40;;;;;;5959211;24;20242;-86
2023/01/17 02:17:17;;;;;;;2.33;0.90;;;17.90;47.50;;;;;;5937406;24;20595;-86
2023/01/17 02:20:31;;;;;;;2.42;1.17;;;18.00;47.50;;;;;;5922320;24;20204;-86
2023/01/17 02:23:42;;;;;;;1.50;0.90;;;17.90;47.40;;;;;;5922254;24;20165;-86
2023/01/17 02:26:49;;;;;;;2.30;1.08;;;18.00;47.40;;;;;;5910793;24;20157;-86
2023/01/17 02:29:39;;;;;;;1.83;1.17;;;18.00;47.50;;;;;;5947056;24;20168;-86
2023/01/17 02:32:30;;;;;;;1.60;1.00;;;17.90;47.40;;;;;;5978269;24;20181;-86
2023/01/17 02:35:22;;;;;;;2.58;1.10;;;18.00;47.40;;;;;;5993139;23;20171;-86
2023/01/17 02:38:02;;;;;;;2.65;1.20;;;17.90;47.40;;;;;;5954481;24;20621;-86
2023/01/17 02:40:39;;;;;;;1.90;1.00;;;17.90;47.50;;;;;;5876547;24;20192;-86
2023/01/17 02:43:13;;;;;;;1.88;1.23;;;17.90;47.60;;;;;;5876539;24;20188;-86
2023/01/17 02:45:42;;;;;;;1.88;1.30;;;17.90;47.60;;;;;;5872293;24;20619;-86
2023/01/17 02:48:36;;;;;;;1.85;0.90;;;17.90;47.60;;;;;;5869311;24;20190;-86
2023/01/17 02:51:45;;;;;;;1.25;0.95;;;17.90;47.60;;;;;;5855995;24;20202;-86
2023/01/17 02:54:38;;;;;;;2.22;1.00;;;17.90;47.60;;;;;;5914544;24;20166;-86
2023/01/17 02:57:35;;;;;;;2.20;1.00;;;17.90;47.60;;;;;;5891241;24;20166;-86
2023/01/17 03:00:25;;;;;;;1.83;1.15;;;17.90;47.70;;;;;;5926868;24;20169;-86
2023/01/17 03:03:19;;;;;;;3.60;1.23;;;17.80;47.60;;;;;;5926585;24;20165;-86
2023/01/17 03:06:00;;;;;;;1.38;1.00;;;17.90;47.70;;;;;;5898697;24;20204;-86
2023/01/17 03:08:33;;;;;;;1.85;1.30;;;17.90;47.70;;;;;;5872293;24;20277;-86
2023/01/17 03:11:01;;;;;;;1.10;0.98;;;17.90;47.70;;;;;;5872140;24;20244;-86
2023/01/17 03:13:47;;;;;;;2.05;1.05;;;17.80;47.70;;;;;;5898653;24;20162;-86
2023/01/17 03:16:23;;;;;;;2.22;1.05;;;17.80;47.80;;;;;;5903463;24;20192;-86
2023/01/17 03:18:57;;;;;;;1.83;1.13;;;17.80;47.80;;;;;;5910129;24;20637;-86
2023/01/17 03:21:31;;;;;;;3.35;1.10;;;17.80;47.70;;;;;;5871883;24;20157;-86
2023/01/17 03:23:58;;;;;;;1.65;1.33;;;17.80;47.80;;;;;;5871385;24;20190;-86
2023/01/17 03:26:32;;;;;;;1.95;1.10;;;17.80;47.90;;;;;;5872468;24;20158;-86
2023/01/17 03:29:01;;;;;;;3.63;1.15;;;17.80;47.90;;;;;;5915397;24;20157;-86
2023/01/17 03:31:35;;;;;;;1.55;0.95;;;17.80;47.90;;;;;;5964627;24;20195;-86
2023/01/17 03:34:13;;;;;;;1.75;1.10;;;17.80;47.90;;;;;;5948376;24;20157;-86
2023/01/17 03:36:42;;;;;;;1.85;1.10;;;17.80;48.00;;;;;;5944034;24;20166;-86
2023/01/17 03:39:20;;;;;;;1.70;1.10;;;17.80;47.90;;;;;;5991999;23;20200;-86
2023/01/17 03:41:50;;;;;;;2.15;1.10;;;17.80;47.90;;;;;;5954036;24;20598;-86
2023/01/17 03:44:37;;;;;;;1.77;1.05;;;17.70;47.90;;;;;;5977078;24;20221;-86
2023/01/17 03:47:11;;;;;;;1.65;1.10;;;17.80;47.90;;;;;;5980508;24;20731;-86
2023/01/17 03:49:46;;;;;;;2.40;1.17;;;17.80;47.90;;;;;;5981662;24;20182;-86
2023/01/17 03:56:09;;;;;;;1.60;1.05;;;17.80;48.60;;;;;;6017680;23;20621;-86
2023/01/17 03:58:35;;;;;;;3.00;1.00;;;17.80;47.90;;;;;;6009255;23;20193;-86
2023/01/17 04:01:11;;;;;;;1.65;1.10;;;17.80;48.00;;;;;;5986410;23;20544;-86
2023/01/17 04:03:43;;;;;;;2.00;1.05;;;17.80;48.00;;;;;;6009416;23;20182;-86
2023/01/17 04:06:09;;;;;;;1.80;1.10;;;17.80;48.00;;;;;;6009256;23;20262;-86
2023/01/17 04:08:35;;;;;;;2.10;1.13;;;17.70;48.00;;;;;;5986362;23;20638;-86
2023/01/17 04:11:00;;;;;;;1.48;1.15;;;17.80;48.10;;;;;;6039634;23;20157;-86
2023/01/17 04:13:29;;;;;;;1.20;0.88;;;17.80;48.10;;;;;;6047515;23;20231;-86
2023/01/17 04:15:57;;;;;;;0.98;0.82;;;17.80;48.00;;;;;;6071460;23;20136;-86
2023/01/17 04:19:08;;;;;;;2.00;1.00;;;17.80;48.70;;;;;;6018463;23;20870;-86
2023/01/17 04:21:09;;;;;;;1.95;1.10;;;17.80;48.10;;;;;;6016869;23;20157;-86
2023/01/17 04:23:35;;;;;;;2.35;1.27;;;17.70;48.10;;;;;;5995124;23;20249;-86
2023/01/17 04:26:09;;;;;;;2.90;1.00;;;17.70;48.10;;;;;;6042733;23;20161;-86
2023/01/17 04:28:41;;;;;;;1.75;1.17;;;17.70;48.10;;;;;;6010791;23;20229;-86
2023/01/17 04:31:18;;;;;;;1.85;1.00;;;17.70;48.10;;;;;;5967987;23;20253;-86
2023/01/17 04:34:10;;;;;;;2.88;0.98;;;17.70;48.10;;;;;;6034503;23;20668;-86
2023/01/17 04:36:38;;;;;;;1.40;1.00;;;17.70;48.20;;;;;;6088894;23;20614;-86
2023/01/17 04:39:06;;;;;;;2.65;1.13;;;17.70;48.20;;;;;;6066634;23;20700;-85
2023/01/17 04:44:26;;;;;;;1.40;1.10;;;17.70;48.20;;;;;;5925108;24;20221;-86
2023/01/17 04:46:52;;;;;;;1.77;1.20;;;17.70;48.30;;;;;;5898355;24;20224;-86
2023/01/17 04:56:17;;;;;;;1.58;1.05;;;17.70;48.20;;;;;;5901465;23;20481;-86
2023/01/17 04:58:48;;;;;;;1.80;1.15;;;17.70;48.20;;;;;;5879877;24;20160;-86
2023/01/17 05:01:14;;;;;;;2.45;0.90;;;17.70;48.30;;;;;;5925713;24;20292;-85
2023/01/17 05:03:41;;;;;;;1.60;1.27;;;17.70;48.30;;;;;;5925568;24;20527;-86
2023/01/17 05:06:37;;;;;;;2.33;1.10;;;17.70;48.30;;;;;;5924836;24;20199;-85
2023/01/17 05:09:12;;;;;;;1.58;0.80;;;17.70;48.30;;;;;;5870904;24;20185;-86
2023/01/17 05:11:47;;;;;;;2.28;1.00;;;17.70;48.30;;;;;;5827928;24;20204;-86
2023/01/17 05:14:13;;;;;;;2.40;0.90;;;17.70;48.40;;;;;;5848657;24;20177;-86
2023/01/17 05:16:42;;;;;;;1.13;0.93;;;17.70;48.30;;;;;;5848688;24;20214;-86
2023/01/17 05:19:12;;;;;;;1.33;0.93;;;17.70;48.40;;;;;;5875640;24;20222;-85
2023/01/17 05:21:41;;;;;;;1.58;0.98;;;17.60;48.30;;;;;;5890765;24;20161;-85
2023/01/17 05:28:13;;;;;;;1.90;1.17;;;17.60;48.50;;;;;;5926241;24;20328;-85
2023/01/17 05:30:48;;;;;;;2.00;0.93;;;17.60;48.50;;;;;;5926790;24;20160;-86
2023/01/17 05:33:29;;;;;;;2.47;1.05;;;17.50;48.40;;;;;;5925330;24;20167;-86
2023/01/17 05:35:58;;;;;;;2.80;1.08;;;17.60;48.50;;;;;;5901464;24;20180;-86
2023/01/17 05:38:38;;;;;;;2.05;1.13;;;17.60;48.60;;;;;;5925538;24;20164;-86
2023/01/17 05:45:15;;;;;;;1.60;1.00;;;17.70;48.50;;;;;;5962815;23;20249;-86
2023/01/17 05:47:49;;;;;;;1.13;0.90;;;17.60;48.50;;;;;;5953220;24;20234;-86
2023/01/17 05:50:29;;;;;;;2.65;0.98;;;17.60;48.50;;;;;;5975921;23;20164;-86
2023/01/17 05:53:00;;;;;;;1.52;0.93;;;17.60;48.60;;;;;;5968711;23;20155;-86
2023/01/17 05:55:32;;;;;;;2.50;1.10;;;17.60;48.60;;;;;;5941935;24;20615;-86
2023/01/17 05:58:12;;;;;;;2.00;1.10;;;17.60;48.70;;;;;;5925159;24;20160;-86
2023/01/17 06:00:53;;;;;;;1.70;1.10;;;17.60;48.70;;;;;;5926804;24;20240;-86
2023/01/17 06:03:54;;;;;;;2.08;1.00;;;17.60;48.60;;;;;;5952673;24;20653;-86
2023/01/17 06:06:20;;;;;;;1.58;0.80;;;17.60;48.60;;;;;;5947073;23;20190;-86
2023/01/17 06:09:00;;;;;;;2.25;1.30;;;17.60;48.70;;;;;;5929133;24;20541;-86
2023/01/17 06:11:27;;;;;;;1.33;1.17;;;17.60;48.70;;;;;;5952961;24;20175;-86
2023/01/17 06:13:57;;;;;;;1.92;1.17;;;17.60;48.70;;;;;;5952601;24;20160;-87
2023/01/17 06:16:42;;;;;;;;;;;;;;;;;;;;;
2023/01/17 06:19:11;;;;;;;2.38;1.30;;;17.60;48.70;;;;;;5899197;24;20251;-86
2023/01/17 06:21:37;;;;;;;1.65;1.02;;;17.60;48.70;;;;;;5924033;24;20625;-87
2023/01/17 06:24:09;;;;;;;3.78;1.20;;;17.50;48.70;;;;;;5905679;24;20242;-86
2023/01/17 06:26:35;;;;;;;1.75;1.15;;;17.50;48.70;;;;;;5881688;24;20603;-86
2023/01/17 06:29:12;;;;;;;2.10;1.08;;;17.50;48.70;;;;;;5874935;24;20161;-86
2023/01/17 06:31:50;;;;;;;1.83;1.10;;;17.50;48.70;;;;;;5897806;24;20165;-86
2023/01/17 06:34:29;;;;;;;1.83;1.00;;;17.50;48.70;;;;;;5874797;24;20183;-86
2023/01/17 06:36:57;;;;;;;2.42;1.30;;;17.50;48.70;;;;;;5897599;24;20168;-86
2023/01/17 06:39:24;;;;;;;1.40;0.80;;;17.50;48.70;;;;;;5888776;24;20168;-86
2023/01/17 06:42:01;;;;;;;2.10;0.98;;;17.50;48.70;;;;;;5952540;24;20642;-86
2023/01/17 06:44:39;;;;;;;1.77;1.10;;;17.60;48.70;;;;;;5967138;24;20179;-86
2023/01/17 06:47:17;;;;;;;1.40;1.00;;;17.50;49.40;;;;;;5951025;24;20605;-86
2023/01/17 06:49:51;;;;;;;1.48;1.00;;;17.60;48.80;;;;;;5934685;23;20167;-86
2023/01/17 06:52:26;;;;;;;1.50;1.02;;;17.50;48.80;;;;;;6032933;23;20189;-86
2023/01/17 06:55:05;;;;;;;1.42;1.10;;;17.50;48.80;;;;;;6010453;23;20190;-86
2023/01/17 06:57:31;;;;;;;1.95;1.08;;;17.50;48.80;;;;;;5994218;23;20165;-86
2023/01/17 07:00:05;;;;;;;1.25;1.00;;;17.50;48.80;;;;;;6010032;23;20486;-86
2023/01/17 07:06:42;;;;;;;2.13;1.30;;;17.50;48.80;;;;;;6022929;23;20196;-86
2023/01/17 07:09:13;;;;;;;1.00;0.90;;;17.50;48.80;;;;;;6008508;23;20335;-86
2023/01/17 07:11:44;;;;;;;1.50;1.10;;;17.50;48.80;;;;;;6008505;23;20166;-86
2023/01/17 07:14:15;;;;;;;1.52;1.10;;;17.50;48.80;;;;;;6002641;23;20156;-86
2023/01/17 07:16:44;;;;;;;1.92;1.20;;;17.50;48.90;;;;;;5953744;24;20549;-86
2023/01/17 07:22:48;;;;;;;1.48;1.00;;;17.50;48.90;;;;;;5968460;23;20701;-86
2023/01/17 07:25:16;;;;;;;1.70;0.90;;;17.50;48.90;;;;;;5986149;23;20186;-86
2023/01/17 07:27:42;;;;;;;2.08;1.00;;;17.50;48.90;;;;;;5962127;23;20181;-86
2023/01/17 07:30:14;;;;;;;1.70;0.90;;;17.40;48.90;;;;;;5986641;23;20599;-86
2023/01/17 07:33:02;;;;;;;1.95;1.10;;;17.50;48.80;;;;;;5986227;23;20164;-86
2023/01/17 07:35:33;;;;;;;1.70;0.90;;;17.60;48.60;;;;;;6010017;23;20162;-86
2023/01/17 07:37:59;;;;;;;2.67;1.05;;;17.70;48.40;;;;;;6014464;23;20237;-86
2023/01/17 07:40:44;;;;;;;1.15;1.00;;;17.80;48.30;;;;;;6038379;23;20200;-86
2023/01/17 07:43:25;;;;;;;2.30;1.20;;;17.80;48.00;;;;;;6043276;23;20185;-86
2023/01/17 07:46:04;;;;;;;1.55;1.08;;;17.90;48.00;;;;;;6024998;23;20160;-86
2023/01/17 07:48:41;;;;;;;1.08;0.98;;;17.90;47.90;;;;;;6004882;23;20253;-86
2023/01/17 07:51:33;;;;;;;1.40;0.90;;;17.90;47.70;;;;;;6020848;23;20233;-86
2023/01/17 07:54:04;;;;;;;1.13;0.90;;;17.90;47.70;;;;;;5958757;24;20253;-86
2023/01/17 07:56:45;;;;;;;1.02;0.80;;;17.90;47.70;;;;;;5953739;24;20156;-87
2023/01/17 07:59:12;;;;;;;1.30;1.20;;;18.00;47.80;;;;;;5945782;24;20194;-85
2023/01/17 08:01:41;;;;;;;1.23;0.88;;;18.00;47.70;;;;;;5931305;24;20196;-86
2023/01/17 08:04:12;;;;;;;1.60;0.95;;;18.00;47.50;;;;;;5892720;24;20268;-86
2023/01/17 08:06:46;;;;;;;1.00;0.90;;;18.00;47.50;;;;;;5855184;24;20158;-85
2023/01/17 08:09:14;;;;;;;1.30;1.00;;;18.00;47.50;;;;;;5865513;24;20197;-86
2023/01/17 08:11:57;;;;;;;1.08;0.80;;;18.00;47.50;;;;;;5898905;24;20187;-86
2023/01/17 08:21:16;;;;;;;1.33;1.08;;;18.10;47.10;;;;;;5877330;24;20150;-84
2023/01/17 08:23:51;;;;;;;1.35;1.05;;;18.20;47.50;;;;;;5893678;24;20541;-85
2023/01/17 08:26:21;;;;;;;1.45;1.30;;;18.10;47.40;;;;;;5845097;24;20565;-86
2023/01/17 08:28:59;;;;;;;1.50;1.17;;;18.10;47.20;;;;;;5845524;24;20159;-85
2023/01/17 08:31:39;;;;;;;2.05;1.00;;;18.20;47.10;;;;;;5845989;24;20295;-85
2023/01/17 08:34:14;;;;;;;2.33;1.00;;;18.20;47.00;;;;;;5840505;24;20159;-86
2023/01/17 08:36:51;;;;;;;2.58;1.20;;;18.20;47.20;;;;;;5839739;24;20170;-86
2023/01/17 08:39:17;;;;;;;0.77;0.77;;;18.20;46.80;;;;;;5840665;24;20616;-86
2023/01/17 08:41:44;;;;;;;1.50;1.10;;;18.20;47.10;;;;;;5797497;24;20166;-85
2023/01/17 08:44:27;;;;;;;1.83;1.00;;;18.10;47.20;;;;;;5817220;24;20194;-86
2023/01/17 08:46:56;;;;;;;1.13;0.82;;;18.20;47.40;;;;;;5788308;24;20164;-85
2023/01/17 08:49:22;;;;;;;1.85;1.00;;;18.20;47.20;;;;;;5797069;24;20156;-85
2023/01/17 08:51:51;;;;;;;2.05;1.10;;;18.20;47.30;;;;;;5817069;24;20160;-86
2023/01/17 08:54:28;;;;;;;1.73;0.77;;;18.20;47.30;;;;;;5815752;24;20474;-82
2023/01/17 08:57:06;;;;;;;1.15;0.90;;;18.20;47.20;;;;;;5832396;24;20657;-85
2023/01/17 08:59:39;;;;;;;1.38;1.15;;;18.20;47.20;;;;;;5896943;24;20161;-85
2023/01/17 09:02:31;;;;;;;2.78;1.30;;;18.20;47.10;;;;;;5928298;23;20178;-85
2023/01/17 09:05:10;;;;;;;0.80;0.80;;;18.20;47.30;;;;;;5950373;24;20194;-85
2023/01/17 09:07:38;;;;;;;1.10;1.00;;;18.20;47.40;;;;;;5939629;23;20611;-85
2023/01/17 09:10:24;;;;;;;1.65;1.10;;;18.20;47.30;;;;;;6013480;23;20168;-85
2023/01/17 09:12:57;;;;;;;1.35;1.05;;;18.20;47.10;;;;;;6027402;23;20157;-84
2023/01/17 09:15:36;;;;;;;2.03;1.08;;;18.20;47.30;;;;;;5990161;23;20154;-85
2023/01/17 09:18:05;;;;;;;0.93;0.82;;;18.30;47.10;;;;;;5967561;23;20519;-86
2023/01/17 09:20:41;;;;;;;1.00;0.90;;;18.20;47.20;;;;;;5964115;23;20186;-86
2023/01/17 09:23:09;;;;;;;1.30;1.10;;;18.20;47.20;;;;;;5965530;23;20157;-85
2023/01/17 09:25:35;;;;;;;3.22;1.10;;;18.30;47.10;;;;;;5988590;23;20205;-85
2023/01/17 09:28:18;;;;;;;1.10;1.00;;;18.30;47.10;;;;;;5985023;23;20234;-87
2023/01/17 09:30:44;;;;;;;2.60;0.90;;;18.30;47.00;;;;;;6017932;23;20485;-85
2023/01/17 09:33:34;;;;;;;4.53;1.00;;;18.40;47.10;;;;;;6014797;23;20150;-85
2023/01/17 09:36:04;;;;;;;1.90;1.05;;;18.40;46.70;;;;;;6033468;23;20232;-83
2023/01/17 09:38:30;;;;;;;7.15;1.33;;;18.40;46.80;;;;;;6014451;23;20225;-84
2023/01/17 09:40:56;;;;;;;6.00;1.20;;;18.40;47.00;;;;;;6015561;23;20189;-86
2023/01/17 09:43:30;;;;;;;4.65;0.95;;;18.40;46.90;;;;;;6015389;23;20162;-83
2023/01/17 09:46:04;;;;;;;2.53;1.05;;;18.40;46.80;;;;;;6037575;23;20176;-85
2023/01/17 09:48:38;;;;;;;2.85;1.05;;;18.50;46.80;;;;;;6072746;23;20458;-85
2023/01/17 09:51:12;;;;;;;2.00;1.33;;;18.40;46.70;;;;;;6039431;23;20161;-85
2023/01/17 09:53:38;;;;;;;3.08;1.27;;;18.50;46.80;;;;;;6013996;23;20162;-86
2023/01/17 09:56:09;;;;;;;7.30;1.13;;;18.50;46.70;;;;;;5988580;23;20222;-85
2023/01/17 09:59:01;;;;;;;2.95;0.90;;;18.50;46.90;;;;;;5986766;23;20253;-85
2023/01/17 10:01:41;;;;;;;7.85;1.40;;;18.40;47.10;;;;;;5987295;23;20162;-85
2023/01/17 10:04:38;;;;;;;6.55;1.27;;;18.50;46.90;;;;;;5963873;23;20543;-85
2023/01/17 10:07:39;;;;;;;2.28;1.00;;;18.40;47.10;;;;;;5991546;23;20539;-85
2023/01/17 10:10:24;;;;;;;2.72;1.08;;;18.50;47.10;;;;;;6067780;23;20244;-86
2023/01/17 10:13:01;;;;;;;2.63;1.10;;;18.50;47.10;;;;;;5987533;23;20167;-85
2023/01/17 10:15:50;;;;;;;2.13;1.10;;;18.50;47.10;;;;;;5937750;23;20157;-85
2023/01/17 10:18:48;;;;;;;2.38;0.98;;;18.50;47.00;;;;;;6020497;23;20162;-85
2023/01/17 10:21:37;;;;;;;2.83;1.30;;;18.50;46.90;;;;;;6031144;23;20232;-86
2023/01/17 10:24:26;;;;;;;1.20;1.00;;;18.50;46.90;;;;;;6077872;23;20211;-84
2023/01/17 10:26:57;;;;;;;1.20;1.10;;;18.50;46.70;;;;;;6096681;23;20182;-85
2023/01/17 10:29:27;;;;;;;1.10;1.00;;;18.60;46.70;;;;;;6110384;23;20328;-84
2023/01/17 10:31:57;;;;;;;1.40;0.95;;;18.60;47.00;;;;;;6113791;23;20232;-85
2023/01/17 10:34:33;;;;;;;4.20;1.30;;;18.50;46.80;;;;;;6076564;23;20149;-86
2023/01/17 10:37:04;;;;;;;5.72;1.20;;;18.60;47.00;;;;;;6081314;23;20160;-84
2023/01/17 10:39:31;;;;;;;5.85;1.50;;;18.50;46.80;;;;;;6079277;23;20599;-85
2023/01/17 10:42:00;;;;;;;2.80;1.20;;;18.50;46.90;;;;;;6058444;23;20157;-85
2023/01/17 10:44:59;;;;;;;2.65;0.90;;;18.50;46.90;;;;;;6075070;23;20181;-87
2023/01/17 10:47:26;;;;;;;2.05;0.98;;;18.60;47.00;;;;;;6056838;23;20202;-86
2023/01/17 10:49:53;;;;;;;5.28;1.10;;;18.50;47.30;;;;;;6051079;23;20158;-87
2023/01/17 10:52:37;;;;;;;4.80;1.05;;;18.50;47.10;;;;;;6047571;23;20220;-87
2023/01/17 10:55:07;;;;;;;1.92;1.00;;;18.50;47.10;;;;;;6048000;23;20245;-86
2023/01/17 10:57:41;;;;;;;4.15;1.10;;;18.60;46.90;;;;;;6046939;23;20149;-86
2023/01/17 11:00:42;;;;;;;5.00;1.30;;;18.50;47.10;;;;;;6044898;23;20180;-87
2023/01/17 11:03:12;;;;;;;3.20;1.05;;;18.50;47.00;;;;;;6050876;23;20244;-86
2023/01/17 11:05:39;;;;;;;1.80;1.20;;;18.60;46.90;;;;;;6061754;23;20187;-85
2023/01/17 11:08:08;;;;;;;3.58;1.15;;;18.60;46.90;;;;;;6049192;23;20228;-85
2023/01/17 11:10:40;;;;;;;4.05;1.00;;;18.60;46.90;;;;;;6048000;23;20492;-85
2023/01/17 11:13:34;;;;;;;5.03;1.27;;;18.60;47.10;;;;;;6102718;23;20179;-83
2023/01/17 11:16:30;;;;;;;1.60;0.93;;;18.60;47.00;;;;;;6079295;23;20159;-83
2023/01/17 11:19:12;;;;;;;1.27;0.90;;;18.60;47.00;;;;;;5959786;24;20155;-86
2023/01/17 11:21:38;;;;;;;1.63;0.88;;;18.60;46.90;;;;;;5994294;23;20173;-85
2023/01/17 11:24:11;;;;;;;3.30;0.98;;;18.50;47.10;;;;;;6039213;23;20273;-85
2023/01/17 11:26:43;;;;;;;3.47;0.90;;;18.60;46.90;;;;;;6018351;23;20493;-86
2023/01/17 11:29:30;;;;;;;1.67;0.90;;;18.60;47.10;;;;;;5994017;23;20578;-85
2023/01/17 11:32:32;;;;;;;1.77;1.00;;;18.60;47.00;;;;;;6015818;23;20165;-86
2023/01/17 11:35:32;;;;;;;1.00;0.90;;;18.50;47.10;;;;;;6016009;23;20162;-85
2023/01/17 11:38:20;;;;;;;1.30;0.80;;;18.60;46.90;;;;;;5960483;24;20164;-86
2023/01/17 11:40:47;;;;;;;1.92;1.00;;;18.60;46.60;;;;;;5934862;24;20156;-85
2023/01/17 11:43:26;;;;;;;0.80;0.77;;;18.60;47.10;;;;;;5899671;24;20161;-86
2023/01/17 11:46:16;;;;;;;0.98;0.82;;;18.50;47.10;;;;;;5867472;24;20170;-86
2023/01/17 11:48:58;;;;;;;3.60;1.10;;;18.60;47.10;;;;;;5846687;24;20159;-86
2023/01/17 11:51:56;;;;;;;1.75;0.85;;;18.60;47.10;;;;;;5846540;24;20553;-86
2023/01/17 11:54:32;;;;;;;2.25;1.17;;;18.60;47.10;;;;;;5841291;24;20249;-86
2023/01/17 11:56:59;;;;;;;1.00;0.90;;;18.50;47.00;;;;;;5886314;24;20642;-86
2023/01/17 11:59:29;;;;;;;1.70;1.10;;;18.60;47.20;;;;;;5893851;24;20208;-85
2023/01/17 12:02:41;;;;;;;1.42;0.90;;;18.60;47.10;;;;;;5893284;24;20166;-85
2023/01/17 12:05:28;;;;;;;1.50;0.98;;;18.60;47.20;;;;;;5884827;24;20554;-85
2023/01/17 12:08:19;;;;;;;2.13;0.80;;;18.60;47.30;;;;;;5901567;24;20158;-86
2023/01/17 12:11:19;;;;;;;1.00;0.88;;;18.60;47.10;;;;;;5918574;24;20180;-86
2023/01/17 12:14:02;;;;;;;1.23;0.80;;;18.70;46.90;;;;;;5921094;24;20185;-86
2023/01/17 12:16:56;;;;;;;1.27;0.88;;;18.60;47.00;;;;;;5929808;24;20169;-86
2023/01/17 12:19:44;;;;;;;1.60;0.77;;;18.70;47.00;;;;;;6007544;23;20629;-86
2023/01/17 12:22:43;;;;;;;0.77;0.70;;;18.70;47.00;;;;;;6001720;23;20511;-86
2023/01/17 12:25:45;;;;;;;1.30;0.88;;;18.70;46.80;;;;;;6064197;23;20181;-86
2023/01/17 12:28:50;;;;;;;2.63;1.20;;;18.70;46.80;;;;;;5984462;23;20180;-86
2023/01/17 12:31:39;;;;;;;1.20;0.90;;;18.70;46.70;;;;;;5957950;24;20241;-86
2023/01/17 12:34:37;;;;;;;1.40;0.95;;;18.80;46.60;;;;;;5946211;24;20503;-86
2023/01/17 12:37:25;;;;;;;1.13;0.80;;;18.70;46.60;;;;;;5918586;24;20187;-86
2023/01/17 12:40:03;;;;;;;1.40;1.25;;;18.70;46.50;;;;;;5871828;24;20219;-86
2023/01/17 12:42:36;;;;;;;2.13;0.93;;;18.80;46.50;;;;;;5864772;24;20220;-84
2023/01/17 12:45:08;;;;;;;0.70;0.70;;;18.80;46.30;;;;;;5845498;24;20186;-86
2023/01/17 12:47:41;;;;;;;0.98;0.70;;;18.80;46.30;;;;;;5867214;24;20472;-85
2023/01/17 12:50:29;;;;;;;2.30;0.80;;;18.70;46.60;;;;;;5852148;24;20162;-84
2023/01/17 12:53:01;;;;;;;1.42;0.77;;;18.70;46.50;;;;;;5854625;24;20572;-86
2023/01/17 12:55:40;;;;;;;1.27;0.70;;;18.70;46.40;;;;;;5847106;24;20212;-86
2023/01/17 12:58:21;;;;;;;1.02;0.90;;;18.80;46.30;;;;;;5847317;24;20173;-85
2023/01/17 13:00:59;;;;;;;1.23;0.85;;;18.80;46.40;;;;;;5893718;24;20158;-85
2023/01/17 13:03:53;;;;;;;1.92;0.85;;;18.70;46.40;;;;;;5903831;24;20165;-86
2023/01/17 13:06:27;;;;;;;1.35;0.82;;;18.70;46.50;;;;;;5923255;24;20149;-84
2023/01/17 13:08:54;;;;;;;0.98;0.80;;;18.70;46.50;;;;;;5964124;23;20243;-84
2023/01/17 13:11:28;;;;;;;2.13;0.88;;;18.70;46.40;;;;;;5962989;23;20328;-85
2023/01/17 13:13:56;;;;;;;2.33;0.90;;;18.70;46.50;;;;;;5941838;23;20311;-84
2023/01/17 13:16:26;;;;;;;0.80;0.70;;;18.70;46.50;;;;;;6020761;23;20154;-84
2023/01/17 13:18:54;;;;;;;0.90;0.80;;;18.70;46.40;;;;;;6043273;23;20617;-84
2023/01/17 13:21:28;;;;;;;0.50;0.50;;;18.70;46.30;;;;;;5997875;23;20155;-84
2023/01/17 13:24:26;;;;;;;0.75;0.73;;;18.80;46.50;;;;;;5997298;23;20250;-86
2023/01/17 13:27:13;;;;;;;0.82;0.75;;;18.70;46.40;;;;;;6026410;23;20216;-85
2023/01/17 13:30:03;;;;;;;1.10;0.80;;;18.80;46.30;;;;;;5999114;23;20662;-85
2023/01/17 13:32:52;;;;;;;0.70;0.70;;;18.70;46.30;;;;;;6019860;23;20632;-86
2023/01/17 13:35:42;;;;;;;0.70;0.70;;;18.70;46.20;;;;;;6123136;23;20178;-85
2023/01/17 13:38:24;;;;;;;0.90;0.73;;;18.70;46.30;;;;;;6101746;23;20207;-84
2023/01/17 13:40:58;;;;;;;0.82;0.70;;;18.70;46.20;;;;;;6103554;23;20163;-84
2023/01/17 13:43:27;;;;;;;0.98;0.77;;;18.70;46.30;;;;;;6077805;23;20276;-84
2023/01/17 13:45:57;;;;;;;1.67;0.70;;;18.70;46.20;;;;;;6134916;23;20290;-85
2023/01/17 13:48:26;;;;;;;2.15;0.90;;;18.70;46.20;;;;;;6137813;23;20137;-84
2023/01/17 13:50:56;;;;;;;0.75;0.75;;;18.70;46.10;;;;;;6142048;23;20186;-84
2023/01/17 13:53:46;;;;;;;1.10;0.73;;;18.70;46.40;;;;;;6143596;23;20131;-84
2023/01/17 13:56:35;;;;;;;0.63;0.60;;;18.70;46.40;;;;;;6141692;23;20169;-84
2023/01/17 13:59:02;;;;;;;0.50;0.50;;;18.70;46.50;;;;;;6072642;23;20153;-84
2023/01/17 14:01:48;;;;;;;0.57;0.57;;;18.60;46.70;;;;;;6023233;23;20149;-84
2023/01/17 14:04:14;;;;;;;0.88;0.65;;;18.70;46.80;;;;;;6025262;23;20177;-84
2023/01/17 14:06:43;;;;;;;1.15;0.70;;;18.70;46.40;;;;;;6046251;23;20654;-84
2023/01/17 14:09:26;;;;;;;0.60;0.60;;;18.70;46.40;;;;;;6045848;23;20636;-84
2023/01/17 14:12:23;;;;;;;0.63;0.63;;;18.70;46.60;;;;;;6024533;23;20145;-84
2023/01/17 14:15:26;;;;;;;1.10;0.70;;;18.60;46.60;;;;;;6045139;23;20158;-85
2023/01/17 14:17:49;;;;;;;1.08;0.77;;;18.60;46.90;;;;;;6024573;23;20153;-84
2023/01/17 14:20:37;;;;;;;0.55;0.52;;;18.60;46.70;;;;;;6023850;23;20165;-84
2023/01/17 14:23:33;;;;;;;1.08;0.60;;;18.60;46.80;;;;;;6070857;23;20151;-84
2023/01/17 14:26:41;;;;;;;0.73;0.70;;;18.60;46.70;;;;;;6019528;23;20279;-83
2023/01/17 14:29:45;;;;;;;1.27;0.70;;;18.60;46.60;;;;;;5885165;24;20157;-85
2023/01/17 14:32:12;;;;;;;0.93;0.70;;;18.60;46.80;;;;;;5882154;24;20157;-84
2023/01/17 14:34:45;;;;;;;0.90;0.75;;;18.60;46.90;;;;;;5903533;24;20589;-84
2023/01/17 14:37:18;;;;;;;1.48;0.70;;;18.70;46.70;;;;;;5838758;24;20159;-83
2023/01/17 14:39:54;;;;;;;0.73;0.70;;;18.70;46.60;;;;;;5827835;24;20162;-85
2023/01/17 14:42:22;;;;;;;0.68;0.60;;;18.70;46.60;;;;;;5805727;24;20168;-84
2023/01/17 14:45:08;;;;;;;0.60;0.60;;;18.70;46.80;;;;;;5804117;24;20255;-83
2023/01/17 14:47:38;;;;;;;0.98;0.80;;;18.70;46.70;;;;;;5826151;24;20159;-83
2023/01/17 14:50:29;;;;;;;1.42;0.80;;;18.60;46.70;;;;;;5825950;24;20185;-83
2023/01/17 14:53:18;;;;;;;0.88;0.60;;;18.60;46.90;;;;;;5826587;24;20328;-82
2023/01/17 14:55:53;;;;;;;1.02;0.60;;;18.60;46.90;;;;;;5824743;24;20163;-83
2023/01/17 14:58:20;;;;;;;0.73;0.70;;;18.60;46.80;;;;;;5847817;24;20197;-84
2023/01/17 15:00:48;;;;;;;1.40;0.73;;;18.60;46.80;;;;;;5896045;24;20560;-84
2023/01/17 15:03:14;;;;;;;1.08;0.85;;;18.60;46.80;;;;;;5979475;23;20599;-84
2023/01/17 15:05:51;;;;;;;1.45;0.60;;;18.70;46.50;;;;;;6043451;23;20210;-83
2023/01/17 15:08:18;;;;;;;0.73;0.70;;;18.80;46.50;;;;;;6051373;23;20295;-83
2023/01/17 15:10:52;;;;;;;2.20;0.80;;;18.70;46.50;;;;;;6080462;23;20234;-84
2023/01/17 15:13:20;;;;;;;2.20;0.68;;;18.70;46.30;;;;;;6056579;23;20156;-83
2023/01/17 15:15:46;;;;;;;3.60;0.95;;;18.90;46.60;;;;;;6080339;23;20200;-84
2023/01/17 15:18:19;;;;;;;4.88;0.75;;;18.80;46.50;;;;;;6080846;23;20512;-83
2023/01/17 15:21:04;;;;;;;6.88;0.95;;;18.90;46.40;;;;;;6080540;23;20190;-84
2023/01/17 15:23:33;;;;;;;4.80;0.80;;;18.80;46.60;;;;;;6082575;23;20247;-81
2023/01/17 15:26:20;;;;;;;3.58;0.80;;;18.80;46.60;;;;;;6082169;23;20188;-84
2023/01/17 15:28:54;;;;;;;2.80;0.90;;;18.90;47.00;;;;;;6057724;23;20179;-84
2023/01/17 15:31:23;;;;;;;3.28;0.73;;;18.90;47.00;;;;;;6058950;23;20148;-85
2023/01/17 15:34:33;;;;;;;1.45;0.50;;;18.80;46.90;;;;;;6113945;23;20154;-83
2023/01/17 15:37:03;;;;;;;2.08;0.77;;;18.80;47.10;;;;;;6105290;23;20179;-84
2023/01/17 15:39:36;;;;;;;4.13;0.70;;;18.80;47.10;;;;;;6083719;23;20178;-82